This is the latest recevied weather packets stored in our database for station/object VA7IS. If no packets are shown the sender has not sent any weather packets the latest 10 day(s).
| Time | Temp. | Humidity | Pressure | Rain* | Wind** | Luminosity | Snow |
|---|---|---|---|---|---|---|---|
| 1778040304 | 15° C | 29% | 1013 hPa | 0 mm | - | - | - |
| 1778039105 | 15.56° C | 33% | 1012.7 hPa | 0 mm | - | - | - |
| 1778037904 | 16.11° C | 37% | 1012.5 hPa | 0 mm | - | - | - |
| 1778036705 | 16.67° C | 50% | 1012.4 hPa | 0 mm | - | - | - |
| 1778035204 | 17.22° C | 53% | 1012.4 hPa | 0 mm | - | - | - |
| 1778034604 | 17.22° C | 54% | 1012.4 hPa | 0 mm | - | - | - |
| 1778032504 | 17.78° C | 54% | 1012.3 hPa | 0 mm | - | - | - |
| 1778031304 | 17.78° C | 54% | 1012.3 hPa | 0 mm | - | - | - |
| 1778030404 | 18.33° C | 55% | 1012.3 hPa | 0 mm | - | - | - |
| 1778028604 | 18.89° C | 55% | 1012.4 hPa | 0 mm | - | - | - |
| 1778028304 | 18.89° C | 56% | 1012.4 hPa | 0 mm | - | - | - |
| 1778027404 | 19.44° C | 55% | 1012.4 hPa | 0 mm | - | - | - |
| 1778026804 | 19.44° C | 55% | 1012.4 hPa | 0 mm | - | - | - |
| 1778025304 | 20° C | 55% | 1012.5 hPa | 0 mm | - | - | - |
| 1778023805 | 20° C | 54% | 1012.7 hPa | 0 mm | - | - | - |
| 1778023205 | 20.56° C | 54% | 1012.8 hPa | 0 mm | - | - | - |
| 1778022904 | 20.56° C | 54% | 1012.8 hPa | 0 mm | - | - | - |
| 1778022304 | 20.56° C | 54% | 1012.9 hPa | 0 mm | - | - | - |
| 1778019904 | 20.56° C | 54% | 1013.1 hPa | 0 mm | - | - | - |
| 1778017204 | 20.56° C | 54% | 1013.4 hPa | 0 mm | - | - | - |
| 1778015704 | 20° C | 55% | 1013.4 hPa | 0 mm | - | - | - |
| 1778015404 | 20° C | 54% | 1013.4 hPa | 0 mm | - | - | - |
| 1778013304 | 19.44° C | 55% | 1013.8 hPa | 0 mm | - | - | - |
| 1778013004 | 19.44° C | 55% | 1013.8 hPa | 0 mm | - | - | - |
| 1778011804 | 20° C | 54% | 1013.7 hPa | 0 mm | - | - | - |
* Rain latest hour (hover to see other rain measurements)
** Current wind speed in m/s (hover to see current wind gust speed)